Time;durP1;ratioP1;P1;durP2;ratioP2;P2;SDS_P1;SDS_P2;PMS_P1;PMS_P2;Temp;Humidity;BMP_temperature;BMP_pressure;BME280_temperature;BME280_humidity;BME280_pressure;Samples;Min_cycle;Max_cycle;Signal;HPM_P1;HPM_P2
2023/04/20 00:01:28;;;;;;;6.43;6.13;;;;;;;;;;4227361;28;20051;-59
2023/04/20 00:03:48;;;;;;;6.50;6.40;;;;;;;;;;4227459;28;20072;-59
2023/04/20 00:06:09;;;;;;;6.60;6.50;;;;;;;;;;4232510;28;20238;-58
2023/04/20 00:08:29;;;;;;;6.40;6.10;;;;;;;;;;4228769;28;20258;-58
2023/04/20 00:10:49;;;;;;;6.68;6.57;;;;;;;;;;4223676;28;20137;-58
2023/04/20 00:13:10;;;;;;;6.85;6.65;;;;;;;;;;4224199;28;20047;-59
2023/04/20 00:15:30;;;;;;;6.50;6.32;;;;;;;;;;4224481;28;20084;-58
2023/04/20 00:17:51;;;;;;;7.90;7.43;;;;;;;;;;4221184;28;20230;-58
2023/04/20 00:20:11;;;;;;;6.22;6.07;;;;;;;;;;4228755;28;20051;-58
2023/04/20 00:22:32;;;;;;;7.20;6.90;;;;;;;;;;4227028;28;20111;-58
2023/04/20 00:24:53;;;;;;;6.38;6.18;;;;;;;;;;4226528;28;20374;-58
2023/04/20 00:27:13;;;;;;;6.95;6.50;;;;;;;;;;4221685;28;20047;-58
2023/04/20 00:29:33;;;;;;;7.00;6.57;;;;;;;;;;4230259;28;20080;-59
2023/04/20 00:31:53;;;;;;;7.50;7.20;;;;;;;;;;4227216;28;20063;-58
2023/04/20 00:34:14;;;;;;;5.57;5.32;;;;;;;;;;4222413;28;20051;-58
2023/04/20 00:36:35;;;;;;;6.05;5.95;;;;;;;;;;4223551;28;20378;-58
2023/04/20 00:38:55;;;;;;;6.05;5.95;;;;;;;;;;4220395;28;20046;-59
2023/04/20 00:41:16;;;;;;;5.40;5.20;;;;;;;;;;4221911;28;20041;-58
2023/04/20 00:43:37;;;;;;;5.80;5.60;;;;;;;;;;4227569;28;20089;-58
2023/04/20 00:45:57;;;;;;;7.18;6.88;;;;;;;;;;4225598;28;20106;-58
2023/04/20 00:48:18;;;;;;;6.72;6.53;;;;;;;;;;4221843;28;20046;-59
2023/04/20 00:50:39;;;;;;;6.88;6.78;;;;;;;;;;4227547;28;20051;-59
2023/04/20 00:53:00;;;;;;;7.10;6.95;;;;;;;;;;4229879;28;20054;-59
2023/04/20 00:55:20;;;;;;;5.95;5.75;;;;;;;;;;4229561;28;20043;-59
2023/04/20 00:57:40;;;;;;;7.50;7.32;;;;;;;;;;4229952;28;20054;-59
2023/04/20 01:00:00;;;;;;;6.30;6.20;;;;;;;;;;4225293;28;20073;-58
2023/04/20 01:02:21;;;;;;;5.32;5.10;;;;;;;;;;4220111;28;20090;-59
2023/04/20 01:04:41;;;;;;;6.32;6.22;;;;;;;;;;4223595;28;20384;-59
2023/04/20 01:07:02;;;;;;;6.07;5.88;;;;;;;;;;4227393;28;20118;-59
2023/04/20 01:09:22;;;;;;;6.32;6.22;;;;;;;;;;4222374;28;20059;-59
2023/04/20 01:11:43;;;;;;;9.27;7.13;;;;;;;;;;4225789;28;20238;-59
2023/04/20 01:14:03;;;;;;;7.25;7.15;;;;;;;;;;4225651;28;20082;-58
2023/04/20 01:16:26;;;;;;;;;;;;;;;;;;4214045;28;20051;-58
2023/04/20 01:18:47;;;;;;;6.88;6.53;;;;;;;;;;4224052;28;19922;-58
2023/04/20 01:21:08;;;;;;;6.03;5.80;;;;;;;;;;4228571;28;20051;-58
2023/04/20 01:23:28;;;;;;;6.00;5.75;;;;;;;;;;4226305;28;20077;-58
2023/04/20 01:25:48;;;;;;;5.55;5.35;;;;;;;;;;4223588;28;20046;-58
2023/04/20 01:28:08;;;;;;;6.22;6.05;;;;;;;;;;4226023;28;20103;-59
2023/04/20 01:30:28;;;;;;;5.93;5.70;;;;;;;;;;4235367;28;20050;-59
2023/04/20 01:32:49;;;;;;;6.03;5.90;;;;;;;;;;4222546;28;20062;-59
2023/04/20 01:35:09;;;;;;;5.00;4.90;;;;;;;;;;4212766;28;20364;-58
2023/04/20 01:37:31;;;;;;;5.50;5.35;;;;;;;;;;4226060;28;20073;-58
2023/04/20 01:39:51;;;;;;;5.63;5.53;;;;;;;;;;4223930;28;20307;-58
2023/04/20 01:42:11;;;;;;;6.07;5.93;;;;;;;;;;4219054;28;20354;-58
2023/04/20 01:44:31;;;;;;;5.88;5.60;;;;;;;;;;4226140;28;20043;-58
2023/04/20 01:46:52;;;;;;;6.00;5.68;;;;;;;;;;4227900;28;20054;-58
2023/04/20 01:49:12;;;;;;;6.05;5.95;;;;;;;;;;4224412;28;20076;-58
2023/04/20 01:51:32;;;;;;;6.45;6.35;;;;;;;;;;4215254;28;20051;-58
2023/04/20 01:53:52;;;;;;;7.25;7.15;;;;;;;;;;4217161;28;20086;-58
2023/04/20 01:56:13;;;;;;;7.28;7.07;;;;;;;;;;4224056;28;20047;-58
2023/04/20 01:58:33;;;;;;;6.20;6.05;;;;;;;;;;4212478;28;20075;-58
2023/04/20 02:00:53;;;;;;;7.60;7.30;;;;;;;;;;4217445;28;20393;-58
2023/04/20 02:03:13;;;;;;;6.53;6.32;;;;;;;;;;4222596;28;20137;-58
2023/04/20 02:05:34;;;;;;;8.35;7.95;;;;;;;;;;4224717;28;20096;-59
2023/04/20 02:07:54;;;;;;;8.60;8.30;;;;;;;;;;4220543;28;20089;-58
2023/04/20 02:10:15;;;;;;;6.03;5.82;;;;;;;;;;4218760;28;20044;-58
2023/04/20 02:12:35;;;;;;;7.72;7.20;;;;;;;;;;4224761;28;20043;-58
2023/04/20 02:14:56;;;;;;;6.32;6.13;;;;;;;;;;4225000;28;20090;-58
2023/04/20 02:17:17;;;;;;;6.25;6.15;;;;;;;;;;4219790;28;20039;-58
2023/04/20 02:19:37;;;;;;;6.00;5.90;;;;;;;;;;4226685;28;20043;-58
2023/04/20 02:21:58;;;;;;;6.68;6.47;;;;;;;;;;4233141;28;20093;-58
2023/04/20 02:24:18;;;;;;;6.72;6.53;;;;;;;;;;4225140;28;20085;-58
2023/04/20 02:26:38;;;;;;;7.60;7.50;;;;;;;;;;4226559;28;20050;-58
2023/04/20 02:29:00;;;;;;;6.68;6.47;;;;;;;;;;4227555;28;20138;-58
2023/04/20 02:31:21;;;;;;;9.52;6.55;;;;;;;;;;4230382;28;20055;-58
2023/04/20 02:33:41;;;;;;;6.47;6.28;;;;;;;;;;4224524;28;20043;-58
2023/04/20 02:36:02;;;;;;;6.55;6.45;;;;;;;;;;4226497;28;20046;-58
2023/04/20 02:38:22;;;;;;;7.05;6.88;;;;;;;;;;4223383;28;20059;-58
2023/04/20 02:40:42;;;;;;;6.55;6.45;;;;;;;;;;4219826;28;20082;-58
2023/04/20 02:43:03;;;;;;;5.57;5.47;;;;;;;;;;4224069;28;20043;-58
2023/04/20 02:45:23;;;;;;;5.57;5.47;;;;;;;;;;4228595;28;20091;-58
2023/04/20 02:47:43;;;;;;;7.15;6.90;;;;;;;;;;4228395;28;20046;-58
2023/04/20 02:50:04;;;;;;;7.55;7.25;;;;;;;;;;4220712;28;20048;-58
2023/04/20 02:52:25;;;;;;;6.63;6.53;;;;;;;;;;4224681;28;20358;-58
2023/04/20 02:54:46;;;;;;;6.90;6.70;;;;;;;;;;4228649;28;20123;-59
2023/04/20 02:57:06;;;;;;;6.53;6.22;;;;;;;;;;4223991;28;20125;-58
2023/04/20 02:59:26;;;;;;;6.80;6.60;;;;;;;;;;4223912;28;20078;-58
2023/04/20 03:01:47;;;;;;;6.88;6.68;;;;;;;;;;4229125;28;20081;-58
2023/04/20 03:04:07;;;;;;;6.78;6.57;;;;;;;;;;4230899;28;20074;-58
2023/04/20 03:06:28;;;;;;;6.40;6.20;;;;;;;;;;4200895;28;20293;-59
2023/04/20 03:08:48;;;;;;;6.63;6.40;;;;;;;;;;4228792;28;20060;-58
2023/04/20 03:11:08;;;;;;;7.03;6.75;;;;;;;;;;4211629;28;20086;-58
2023/04/20 03:13:29;;;;;;;6.05;5.95;;;;;;;;;;4228741;28;20043;-57
2023/04/20 03:15:50;;;;;;;5.53;5.22;;;;;;;;;;4229255;28;20108;-58
2023/04/20 03:18:11;;;;;;;6.00;5.88;;;;;;;;;;4213474;28;20100;-58
2023/04/20 03:20:31;;;;;;;5.95;5.85;;;;;;;;;;4211828;28;20055;-58
2023/04/20 03:22:52;;;;;;;6.68;6.30;;;;;;;;;;4225251;28;20042;-58
2023/04/20 03:25:12;;;;;;;6.93;6.82;;;;;;;;;;4228045;28;20050;-58
2023/04/20 03:27:33;;;;;;;5.95;5.75;;;;;;;;;;4225689;28;20050;-58
2023/04/20 03:29:53;;;;;;;6.45;6.35;;;;;;;;;;4219884;28;20050;-58
2023/04/20 03:32:13;;;;;;;6.28;6.07;;;;;;;;;;4225739;28;20296;-58
2023/04/20 03:34:33;;;;;;;6.38;6.25;;;;;;;;;;4219321;28;20035;-58
2023/04/20 03:36:54;;;;;;;6.38;6.28;;;;;;;;;;4220868;28;20048;-64
2023/04/20 03:39:14;;;;;;;6.78;5.97;;;;;;;;;;4215408;28;20055;-65
2023/04/20 03:41:37;;;;;;;7.30;7.05;;;;;;;;;;4222099;28;20108;-65
2023/04/20 03:43:58;;;;;;;6.07;5.97;;;;;;;;;;4228282;28;20369;-64
2023/04/20 03:46:18;;;;;;;5.97;5.80;;;;;;;;;;4234234;28;20070;-65
2023/04/20 03:48:40;;;;;;;5.50;5.40;;;;;;;;;;4223651;28;20084;-65
2023/04/20 03:51:02;;;;;;;6.13;5.93;;;;;;;;;;4227971;28;20094;-64
2023/04/20 03:53:22;;;;;;;5.50;5.40;;;;;;;;;;4230537;28;20047;-65
2023/04/20 03:55:43;;;;;;;6.03;5.93;;;;;;;;;;4226307;28;20093;-64
2023/04/20 03:58:05;;;;;;;5.85;5.75;;;;;;;;;;4225004;28;20075;-65
2023/04/20 04:00:26;;;;;;;5.78;5.47;;;;;;;;;;4230828;28;20059;-65
2023/04/20 04:02:46;;;;;;;5.35;5.20;;;;;;;;;;4228465;28;20105;-65
2023/04/20 04:05:07;;;;;;;5.90;5.80;;;;;;;;;;4225397;28;20108;-65
2023/04/20 04:07:27;;;;;;;5.75;5.65;;;;;;;;;;4227542;28;20055;-65
2023/04/20 04:09:47;;;;;;;6.00;5.72;;;;;;;;;;4232713;28;20421;-65
2023/04/20 04:12:08;;;;;;;5.28;5.18;;;;;;;;;;4230876;28;20059;-65
2023/04/20 04:14:29;;;;;;;5.45;5.35;;;;;;;;;;4224498;28;20051;-65
2023/04/20 04:16:49;;;;;;;6.25;6.05;;;;;;;;;;4223081;28;20047;-65
2023/04/20 04:19:09;;;;;;;6.38;6.18;;;;;;;;;;4224524;28;20051;-65
2023/04/20 04:21:30;;;;;;;10.35;8.10;;;;;;;;;;4226557;28;20361;-65
2023/04/20 04:23:51;;;;;;;7.32;7.03;;;;;;;;;;4230191;28;20366;-65
2023/04/20 04:26:11;;;;;;;6.60;6.18;;;;;;;;;;4224689;28;20362;-65
2023/04/20 04:28:32;;;;;;;8.02;7.30;;;;;;;;;;4209375;28;20367;-65
2023/04/20 04:30:53;;;;;;;6.32;6.03;;;;;;;;;;4227823;28;20362;-65
2023/04/20 04:33:13;;;;;;;5.90;5.70;;;;;;;;;;4223093;28;20044;-65
2023/04/20 04:35:34;;;;;;;6.35;5.95;;;;;;;;;;4226908;28;20050;-65
2023/04/20 04:37:54;;;;;;;7.35;6.65;;;;;;;;;;4225856;28;20090;-65
2023/04/20 04:40:15;;;;;;;9.32;8.43;;;;;;;;;;4219283;28;20362;-65
2023/04/20 04:42:35;;;;;;;9.10;8.23;;;;;;;;;;4223080;28;20047;-65
2023/04/20 04:44:57;;;;;;;12.65;10.50;;;;;;;;;;4225358;28;20133;-65
2023/04/20 04:47:20;;;;;;;5.25;5.15;;;;;;;;;;4227434;28;20362;-65
2023/04/20 04:49:41;;;;;;;;;;;;;;;;;;4223956;28;20050;-65
2023/04/20 04:52:02;;;;;;;6.63;6.50;;;;;;;;;;4223759;28;19923;-65
2023/04/20 04:54:22;;;;;;;7.72;7.10;;;;;;;;;;4229768;28;20054;-65
2023/04/20 04:56:42;;;;;;;6.15;5.78;;;;;;;;;;4231222;28;20047;-65
2023/04/20 04:59:02;;;;;;;6.25;6.15;;;;;;;;;;4227549;28;20100;-65
2023/04/20 05:01:22;;;;;;;6.68;6.47;;;;;;;;;;4223400;28;20105;-65
2023/04/20 05:03:42;;;;;;;6.70;6.55;;;;;;;;;;4219733;28;20370;-65
2023/04/20 05:06:03;;;;;;;5.88;5.68;;;;;;;;;;4217276;28;20063;-65
2023/04/20 05:08:23;;;;;;;6.63;6.43;;;;;;;;;;4225050;28;20086;-65
2023/04/20 05:10:43;;;;;;;6.45;6.35;;;;;;;;;;4226861;28;20054;-65
2023/04/20 05:13:04;;;;;;;6.85;6.38;;;;;;;;;;4225178;28;20366;-65
2023/04/20 05:15:24;;;;;;;5.78;5.68;;;;;;;;;;4226005;28;20051;-65
2023/04/20 05:17:45;;;;;;;6.70;6.45;;;;;;;;;;4227663;28;20081;-65
2023/04/20 05:20:07;;;;;;;5.65;5.28;;;;;;;;;;4225162;28;20062;-64
2023/04/20 05:22:27;;;;;;;5.93;5.57;;;;;;;;;;4225692;28;20044;-64
2023/04/20 05:24:48;;;;;;;6.82;6.55;;;;;;;;;;4228322;28;20051;-64
2023/04/20 05:27:10;;;;;;;5.93;5.60;;;;;;;;;;4229022;28;20118;-64
2023/04/20 05:29:31;;;;;;;5.20;5.10;;;;;;;;;;4226889;28;20047;-64
2023/04/20 05:31:51;;;;;;;6.75;6.55;;;;;;;;;;4221671;28;20594;-64
2023/04/20 05:34:11;;;;;;;5.95;5.85;;;;;;;;;;4223984;28;20047;-64
2023/04/20 05:36:32;;;;;;;6.85;6.45;;;;;;;;;;4220802;28;20047;-64
2023/04/20 05:38:52;;;;;;;6.38;6.13;;;;;;;;;;4226894;28;20048;-64
2023/04/20 05:41:12;;;;;;;6.20;6.10;;;;;;;;;;4221575;28;20051;-64
2023/04/20 05:43:32;;;;;;;5.72;5.63;;;;;;;;;;4222586;28;20298;-64
2023/04/20 05:45:52;;;;;;;5.60;5.45;;;;;;;;;;4221683;28;20052;-64
2023/04/20 05:48:13;;;;;;;5.88;5.78;;;;;;;;;;4227616;28;20112;-64
2023/04/20 05:50:33;;;;;;;6.88;6.45;;;;;;;;;;4227739;28;20163;-64
2023/04/20 05:52:53;;;;;;;6.47;6.07;;;;;;;;;;4219380;28;20093;-64
2023/04/20 05:55:13;;;;;;;7.38;6.85;;;;;;;;;;4216729;28;20083;-64
2023/04/20 05:57:41;;;;;;;6.60;6.20;;;;;;;;;;4224396;28;20038;-64
2023/04/20 06:00:02;;;;;;;7.50;7.07;;;;;;;;;;4226150;28;20063;-64
2023/04/20 06:02:23;;;;;;;7.28;6.88;;;;;;;;;;4224753;28;20044;-64
2023/04/20 06:04:43;;;;;;;7.93;7.35;;;;;;;;;;4217461;28;20074;-64
2023/04/20 06:07:04;;;;;;;6.97;6.78;;;;;;;;;;4225126;28;20067;-64
2023/04/20 06:09:24;;;;;;;7.07;6.82;;;;;;;;;;4225326;28;20263;-65
2023/04/20 06:11:44;;;;;;;5.93;5.78;;;;;;;;;;4224532;28;20106;-64
2023/04/20 06:14:04;;;;;;;6.07;5.82;;;;;;;;;;4219780;28;20043;-64
2023/04/20 06:16:24;;;;;;;7.53;6.97;;;;;;;;;;4226915;28;20061;-64
2023/04/20 06:18:44;;;;;;;9.90;7.95;;;;;;;;;;4224139;28;20074;-63
2023/04/20 06:21:05;;;;;;;6.13;5.88;;;;;;;;;;4225296;28;20086;-64
2023/04/20 06:23:26;;;;;;;6.75;6.43;;;;;;;;;;4225331;28;20050;-64
2023/04/20 06:25:46;;;;;;;6.18;5.88;;;;;;;;;;4222815;28;20058;-64
2023/04/20 06:28:06;;;;;;;4.68;4.57;;;;;;;;;;4223541;28;20055;-63
2023/04/20 06:30:26;;;;;;;6.40;6.00;;;;;;;;;;4223569;28;20047;-64
2023/04/20 06:32:46;;;;;;;5.60;5.25;;;;;;;;;;4223492;28;20043;-63
2023/04/20 06:35:07;;;;;;;6.68;6.47;;;;;;;;;;4229095;28;20305;-64
2023/04/20 06:37:28;;;;;;;10.07;9.68;;;;;;;;;;4229727;28;20063;-63
2023/04/20 06:39:48;;;;;;;6.13;5.93;;;;;;;;;;4221824;28;20060;-64
2023/04/20 06:42:08;;;;;;;5.75;5.65;;;;;;;;;;4227002;28;20141;-63
2023/04/20 06:44:28;;;;;;;6.22;6.10;;;;;;;;;;4225239;28;20051;-63
2023/04/20 06:46:49;;;;;;;6.65;6.18;;;;;;;;;;4231133;28;20081;-64
2023/04/20 06:49:09;;;;;;;6.68;6.47;;;;;;;;;;4233343;28;20333;-63
2023/04/20 06:51:31;;;;;;;6.50;5.82;;;;;;;;;;4223594;28;20101;-64
2023/04/20 06:53:51;;;;;;;7.10;6.65;;;;;;;;;;4225774;28;20413;-63
2023/04/20 06:56:12;;;;;;;6.32;6.03;;;;;;;;;;4228615;28;20046;-63
2023/04/20 06:58:32;;;;;;;5.85;5.75;;;;;;;;;;4226115;28;20327;-63
2023/04/20 07:00:52;;;;;;;6.32;6.03;;;;;;;;;;4226198;28;20051;-63
2023/04/20 07:03:12;;;;;;;5.72;5.53;;;;;;;;;;4229106;28;20046;-63
2023/04/20 07:05:33;;;;;;;7.50;6.97;;;;;;;;;;4233369;28;20042;-63
2023/04/20 07:07:53;;;;;;;6.63;6.43;;;;;;;;;;4220229;28;20240;-63
2023/04/20 07:10:14;;;;;;;6.88;6.68;;;;;;;;;;4228392;28;20101;-63
2023/04/20 07:12:38;;;;;;;7.43;6.95;;;;;;;;;;4229234;28;20072;-63
2023/04/20 07:15:02;;;;;;;5.90;5.57;;;;;;;;;;4227290;28;20056;-63
2023/04/20 07:17:22;;;;;;;6.47;6.18;;;;;;;;;;4224166;28;20089;-63
2023/04/20 07:19:42;;;;;;;6.07;5.97;;;;;;;;;;4230824;28;20048;-63
2023/04/20 07:22:02;;;;;;;5.95;5.57;;;;;;;;;;4230735;28;20085;-63
2023/04/20 07:24:22;;;;;;;6.60;6.32;;;;;;;;;;4222747;28;20081;-63
2023/04/20 07:26:42;;;;;;;6.25;6.05;;;;;;;;;;4226671;28;20142;-63
2023/04/20 07:29:02;;;;;;;6.38;6.13;;;;;;;;;;4227806;28;20094;-63
2023/04/20 07:31:25;;;;;;;5.88;5.78;;;;;;;;;;4223782;28;20047;-63
2023/04/20 07:33:45;;;;;;;7.00;6.80;;;;;;;;;;4214960;28;20363;-64
2023/04/20 07:36:05;;;;;;;6.80;6.70;;;;;;;;;;4221855;28;20047;-63
2023/04/20 07:38:26;;;;;;;6.47;6.28;;;;;;;;;;4222880;28;20047;-63
2023/04/20 07:40:46;;;;;;;6.43;6.15;;;;;;;;;;4220471;28;20382;-64
2023/04/20 07:43:06;;;;;;;6.35;6.25;;;;;;;;;;4202671;28;20083;-64
2023/04/20 07:45:26;;;;;;;5.68;5.32;;;;;;;;;;4225353;28;20380;-64
2023/04/20 07:47:50;;;;;;;3.50;3.47;;;;;;;;;;4197417;28;20154;-64
2023/04/20 07:50:10;;;;;;;4.88;4.63;;;;;;;;;;4219679;28;20366;-63
2023/04/20 07:52:30;;;;;;;4.95;4.85;;;;;;;;;;4220237;28;20071;-64
2023/04/20 07:54:52;;;;;;;4.35;4.25;;;;;;;;;;4223988;28;20086;-64
2023/04/20 07:57:12;;;;;;;4.07;3.77;;;;;;;;;;4221424;28;20232;-64
2023/04/20 07:59:33;;;;;;;4.50;4.40;;;;;;;;;;4221553;28;20050;-64
2023/04/20 08:01:58;;;;;;;5.80;5.32;;;;;;;;;;4226010;28;20333;-64
2023/04/20 08:04:19;;;;;;;4.32;4.22;;;;;;;;;;4233393;28;20078;-64
2023/04/20 08:06:40;;;;;;;4.65;4.45;;;;;;;;;;4224403;28;20050;-64
2023/04/20 08:09:02;;;;;;;3.97;3.67;;;;;;;;;;4227684;28;20047;-65
2023/04/20 08:11:23;;;;;;;4.10;3.90;;;;;;;;;;4229069;28;20107;-64
2023/04/20 08:13:44;;;;;;;2.80;2.80;;;;;;;;;;4229290;28;20354;-65
2023/04/20 08:16:04;;;;;;;2.80;2.65;;;;;;;;;;4227014;28;20046;-64
2023/04/20 08:18:25;;;;;;;2.70;2.60;;;;;;;;;;4225034;28;20042;-64
2023/04/20 08:20:45;;;;;;;3.33;3.22;;;;;;;;;;4225091;28;20050;-64
2023/04/20 08:23:05;;;;;;;3.30;3.20;;;;;;;;;;4223835;28;20107;-64
2023/04/20 08:25:25;;;;;;;2.10;2.10;;;;;;;;;;4225655;28;20113;-64
2023/04/20 08:27:47;;;;;;;3.15;3.15;;;;;;;;;;4228080;28;20050;-64
2023/04/20 08:30:08;;;;;;;3.25;3.10;;;;;;;;;;4228284;28;20075;-64
2023/04/20 08:32:28;;;;;;;3.22;3.13;;;;;;;;;;4219980;28;20235;-64
2023/04/20 08:34:49;;;;;;;2.13;2.03;;;;;;;;;;4220340;28;20409;-64
2023/04/20 08:37:10;;;;;;;3.65;3.55;;;;;;;;;;4226708;28;20059;-64
2023/04/20 08:39:30;;;;;;;4.03;3.83;;;;;;;;;;4224985;28;20084;-64
2023/04/20 08:41:54;;;;;;;2.55;2.35;;;;;;;;;;4223670;28;20055;-64
2023/04/20 08:44:16;;;;;;;2.55;2.55;;;;;;;;;;4220825;28;20235;-64
2023/04/20 08:46:37;;;;;;;2.80;2.70;;;;;;;;;;4225740;28;20047;-64
2023/04/20 08:49:01;;;;;;;3.28;3.17;;;;;;;;;;4230894;28;20047;-64
2023/04/20 08:51:21;;;;;;;2.80;2.70;;;;;;;;;;4224506;28;20197;-65
2023/04/20 08:53:42;;;;;;;3.05;2.80;;;;;;;;;;4224723;28;20276;-64
2023/04/20 08:56:03;;;;;;;2.88;2.50;;;;;;;;;;4222432;28;20051;-64
2023/04/20 08:58:30;;;;;;;2.00;2.00;;;;;;;;;;4233390;28;20050;-64
2023/04/20 09:00:50;;;;;;;1.83;1.83;;;;;;;;;;4227861;28;20095;-64
2023/04/20 09:03:11;;;;;;;2.95;2.75;;;;;;;;;;4225630;28;20414;-64
2023/04/20 09:05:32;;;;;;;1.77;1.77;;;;;;;;;;4223231;28;20227;-64
2023/04/20 09:07:52;;;;;;;2.30;2.10;;;;;;;;;;4219552;28;20112;-64
2023/04/20 09:10:13;;;;;;;1.92;1.92;;;;;;;;;;4218745;28;20116;-64
2023/04/20 09:12:41;;;;;;;3.05;2.72;;;;;;;;;;4227238;28;20041;-64
2023/04/20 09:15:02;;;;;;;2.67;2.58;;;;;;;;;;4225946;28;20108;-64
2023/04/20 09:17:38;;;;;;;3.20;3.10;;;;;;;;;;4222082;28;20142;-64
2023/04/20 09:19:58;;;;;;;2.45;2.45;;;;;;;;;;4229068;28;20050;-64
2023/04/20 09:22:28;;;;;;;2.50;2.40;;;;;;;;;;4229262;28;20047;-64
2023/04/20 09:24:48;;;;;;;2.42;2.42;;;;;;;;;;4227077;28;20055;-64
2023/04/20 09:27:16;;;;;;;2.25;2.25;;;;;;;;;;4226333;28;20281;-65
2023/04/20 09:29:36;;;;;;;2.30;2.30;;;;;;;;;;4229965;28;20050;-64
2023/04/20 09:31:56;;;;;;;2.00;2.00;;;;;;;;;;4225126;28;20047;-64
2023/04/20 09:34:20;;;;;;;1.55;1.55;;;;;;;;;;4222557;28;20051;-64
2023/04/20 09:36:45;;;;;;;2.42;2.42;;;;;;;;;;4224381;28;20108;-64
2023/04/20 09:39:09;;;;;;;3.22;3.10;;;;;;;;;;4222024;28;20066;-64
2023/04/20 09:41:32;;;;;;;2.67;2.58;;;;;;;;;;4224480;28;20050;-64
2023/04/20 09:43:52;;;;;;;5.03;2.83;;;;;;;;;;4224242;28;20100;-65
2023/04/20 09:46:12;;;;;;;1.90;1.90;;;;;;;;;;4225891;28;20055;-65
2023/04/20 09:48:34;;;;;;;4.13;2.72;;;;;;;;;;4223877;28;20114;-64
2023/04/20 09:50:55;;;;;;;2.60;2.28;;;;;;;;;;4227838;28;20284;-64
2023/04/20 09:53:16;;;;;;;2.90;2.80;;;;;;;;;;4226472;28;20358;-64
2023/04/20 09:55:37;;;;;;;2.22;2.13;;;;;;;;;;4222958;28;20074;-64
2023/04/20 09:58:00;;;;;;;2.05;1.95;;;;;;;;;;4219692;28;20046;-64
2023/04/20 10:00:20;;;;;;;2.60;2.50;;;;;;;;;;4226240;28;20072;-64
2023/04/20 10:02:42;;;;;;;2.13;2.13;;;;;;;;;;4224453;28;20125;-65
2023/04/20 10:05:03;;;;;;;2.28;2.10;;;;;;;;;;4225186;28;20051;-64
2023/04/20 10:07:25;;;;;;;2.15;2.15;;;;;;;;;;4219410;28;20050;-64
2023/04/20 10:09:45;;;;;;;1.60;1.60;;;;;;;;;;4225957;28;20092;-65
2023/04/20 10:12:09;;;;;;;2.25;2.25;;;;;;;;;;4227249;28;20096;-65
2023/04/20 10:14:30;;;;;;;2.00;2.00;;;;;;;;;;4227375;28;20103;-64
2023/04/20 10:17:03;;;;;;;2.40;2.40;;;;;;;;;;4222136;28;20055;-65
2023/04/20 10:19:24;;;;;;;1.80;1.80;;;;;;;;;;4224667;28;20083;-65
2023/04/20 10:21:47;;;;;;;1.70;1.60;;;;;;;;;;4228553;28;20366;-65
2023/04/20 10:24:07;;;;;;;1.98;1.98;;;;;;;;;;4226733;28;20269;-65
2023/04/20 10:26:37;;;;;;;1.85;1.85;;;;;;;;;;4223188;28;20075;-65
2023/04/20 10:28:57;;;;;;;2.15;2.08;;;;;;;;;;4228711;28;20042;-64
2023/04/20 10:31:19;;;;;;;1.35;1.35;;;;;;;;;;4226938;28;20054;-65
2023/04/20 10:33:52;;;;;;;1.55;1.50;;;;;;;;;;4217115;28;20105;-65
2023/04/20 10:36:22;;;;;;;2.30;2.30;;;;;;;;;;4224415;28;20047;-65
2023/04/20 10:38:42;;;;;;;1.98;1.92;;;;;;;;;;4226490;28;20373;-65
2023/04/20 10:41:09;;;;;;;9.82;2.10;;;;;;;;;;4222902;28;20086;-64
2023/04/20 10:43:30;;;;;;;1.85;1.75;;;;;;;;;;4215408;28;20043;-64
2023/04/20 10:45:50;;;;;;;1.48;1.48;;;;;;;;;;4213337;28;20043;-65
2023/04/20 10:48:12;;;;;;;1.52;1.52;;;;;;;;;;4218753;28;20124;-64
2023/04/20 10:50:32;;;;;;;1.45;1.35;;;;;;;;;;4217948;28;20227;-64
2023/04/20 10:52:55;;;;;;;1.45;1.45;;;;;;;;;;4216979;28;20147;-64
2023/04/20 10:55:20;;;;;;;1.40;1.40;;;;;;;;;;4223259;28;20262;-64
2023/04/20 10:57:44;;;;;;;1.33;1.33;;;;;;;;;;4230267;28;20054;-65
2023/04/20 11:00:19;;;;;;;1.40;1.30;;;;;;;;;;4232451;28;20055;-64
2023/04/20 11:02:45;;;;;;;1.38;1.38;;;;;;;;;;4219797;28;20047;-65
2023/04/20 11:05:12;;;;;;;1.92;1.40;;;;;;;;;;4228937;28;20042;-64
2023/04/20 11:07:32;;;;;;;1.88;1.48;;;;;;;;;;4231762;28;20070;-64
2023/04/20 11:09:55;;;;;;;1.75;1.52;;;;;;;;;;4219602;28;20088;-64
2023/04/20 11:12:16;;;;;;;1.52;1.42;;;;;;;;;;4225441;28;20104;-65
2023/04/20 11:14:37;;;;;;;1.30;1.30;;;;;;;;;;4229949;28;20089;-64
2023/04/20 11:16:57;;;;;;;1.30;1.30;;;;;;;;;;4226754;28;20108;-65
2023/04/20 11:19:25;;;;;;;1.50;1.50;;;;;;;;;;4207607;28;20047;-65
2023/04/20 11:21:45;;;;;;;1.30;1.30;;;;;;;;;;4229254;28;20054;-65
2023/04/20 11:24:17;;;;;;;1.50;1.50;;;;;;;;;;4234682;28;20082;-64
2023/04/20 11:26:39;;;;;;;2.05;1.50;;;;;;;;;;4222751;28;20043;-65
2023/04/20 11:29:00;;;;;;;1.65;1.55;;;;;;;;;;4223246;28;20051;-65
2023/04/20 11:31:21;;;;;;;1.20;1.20;;;;;;;;;;4226216;28;20093;-65
2023/04/20 11:33:42;;;;;;;1.65;1.60;;;;;;;;;;4221071;28;20055;-65
2023/04/20 11:36:02;;;;;;;1.25;1.25;;;;;;;;;;4218680;28;20073;-65
2023/04/20 11:38:33;;;;;;;1.50;1.50;;;;;;;;;;4222433;28;20043;-65
2023/04/20 11:40:53;;;;;;;1.45;1.45;;;;;;;;;;4226331;28;20046;-62
2023/04/20 11:43:15;;;;;;;1.88;1.50;;;;;;;;;;4218961;28;20059;-62
2023/04/20 11:45:35;;;;;;;1.20;1.20;;;;;;;;;;4219116;28;20375;-63
2023/04/20 11:47:56;;;;;;;1.55;1.30;;;;;;;;;;4224906;28;20119;-63
2023/04/20 11:50:17;;;;;;;1.27;1.27;;;;;;;;;;4226603;28;20369;-63
2023/04/20 11:52:37;;;;;;;1.60;1.60;;;;;;;;;;4221457;28;20603;-63
2023/04/20 11:54:57;;;;;;;1.40;1.40;;;;;;;;;;4218864;28;20082;-62
2023/04/20 11:57:17;;;;;;;1.35;1.35;;;;;;;;;;4225205;28;20054;-62
2023/04/20 11:59:37;;;;;;;1.20;1.20;;;;;;;;;;4221203;28;20080;-62
2023/04/20 12:02:00;;;;;;;1.38;1.33;;;;;;;;;;4223198;28;20369;-62
2023/04/20 12:04:20;;;;;;;;;;;;;;;;;;4221076;28;20051;-62
2023/04/20 12:06:41;;;;;;;1.88;1.77;;;;;;;;;;4226961;28;19980;-61
2023/04/20 12:09:01;;;;;;;1.35;1.35;;;;;;;;;;4223046;28;20143;-61
2023/04/20 12:11:22;;;;;;;1.30;1.20;;;;;;;;;;4225282;28;20092;-63
2023/04/20 12:13:43;;;;;;;1.23;1.23;;;;;;;;;;4229618;28;20105;-64
2023/04/20 12:16:03;;;;;;;1.40;1.30;;;;;;;;;;4209578;28;20056;-64
2023/04/20 12:18:24;;;;;;;1.58;1.55;;;;;;;;;;4231769;28;20078;-64
2023/04/20 12:20:45;;;;;;;1.58;1.50;;;;;;;;;;4227803;28;20238;-64
2023/04/20 12:23:06;;;;;;;2.28;1.40;;;;;;;;;;4223684;28;20078;-64
2023/04/20 12:25:26;;;;;;;1.38;1.25;;;;;;;;;;4224620;28;20051;-64
2023/04/20 12:27:46;;;;;;;1.48;1.40;;;;;;;;;;4228797;28;20055;-64
2023/04/20 12:30:10;;;;;;;1.30;1.30;;;;;;;;;;4227699;28;20111;-64
2023/04/20 12:32:30;;;;;;;1.60;1.60;;;;;;;;;;4223346;28;20361;-64
2023/04/20 12:34:50;;;;;;;1.20;1.20;;;;;;;;;;4220835;28;20048;-64
2023/04/20 12:37:11;;;;;;;1.20;1.20;;;;;;;;;;4225623;28;20098;-64
2023/04/20 12:39:31;;;;;;;1.60;1.60;;;;;;;;;;4229426;28;20082;-64
2023/04/20 12:41:51;;;;;;;1.08;1.08;;;;;;;;;;4219327;28;20063;-64
2023/04/20 12:44:12;;;;;;;1.27;1.27;;;;;;;;;;4224049;28;20070;-64
2023/04/20 12:46:32;;;;;;;4.60;1.55;;;;;;;;;;4223766;28;20047;-65
2023/04/20 12:48:52;;;;;;;4.13;1.73;;;;;;;;;;4224501;28;20039;-64
2023/04/20 12:51:14;;;;;;;1.10;1.10;;;;;;;;;;4227403;28;20043;-60
2023/04/20 12:53:34;;;;;;;1.30;1.30;;;;;;;;;;4227128;28;20085;-61
2023/04/20 12:55:54;;;;;;;1.50;1.42;;;;;;;;;;4211200;28;20466;-61
2023/04/20 12:58:21;;;;;;;1.20;1.20;;;;;;;;;;4225927;28;20071;-61
2023/04/20 13:00:42;;;;;;;1.20;1.20;;;;;;;;;;4231134;28;20418;-60
2023/04/20 13:03:02;;;;;;;1.00;1.00;;;;;;;;;;4230041;28;20047;-61
2023/04/20 13:05:22;;;;;;;1.10;1.10;;;;;;;;;;4226217;28;20058;-60
2023/04/20 13:07:43;;;;;;;1.15;1.15;;;;;;;;;;4225958;28;20063;-61
2023/04/20 13:10:03;;;;;;;1.13;1.02;;;;;;;;;;4224086;28;20235;-60
2023/04/20 13:12:24;;;;;;;1.27;0.90;;;;;;;;;;4222251;28;20074;-61
2023/04/20 13:14:44;;;;;;;1.00;1.00;;;;;;;;;;4229763;28;20072;-60
2023/04/20 13:17:05;;;;;;;1.00;1.00;;;;;;;;;;4227517;28;20078;-60
2023/04/20 13:19:25;;;;;;;1.00;1.00;;;;;;;;;;4227813;28;20103;-60
2023/04/20 13:21:46;;;;;;;1.00;1.00;;;;;;;;;;4222165;28;20067;-60
2023/04/20 13:24:06;;;;;;;1.63;1.10;;;;;;;;;;4233126;28;20058;-60
2023/04/20 13:26:27;;;;;;;0.93;0.93;;;;;;;;;;4226598;28;20085;-60
2023/04/20 13:28:48;;;;;;;0.90;0.90;;;;;;;;;;4226938;28;20054;-62
2023/04/20 13:31:08;;;;;;;0.90;0.90;;;;;;;;;;4219944;28;20055;-60
2023/04/20 13:33:29;;;;;;;0.90;0.90;;;;;;;;;;4220011;28;20046;-60
2023/04/20 13:35:49;;;;;;;1.00;1.00;;;;;;;;;;4216083;28;20054;-60
2023/04/20 13:38:09;;;;;;;0.93;0.93;;;;;;;;;;4225061;28;20244;-60
2023/04/20 13:40:29;;;;;;;1.00;1.00;;;;;;;;;;4223786;28;20116;-60
2023/04/20 13:42:50;;;;;;;1.27;0.90;;;;;;;;;;4221009;28;20093;-61
2023/04/20 13:45:10;;;;;;;0.90;0.90;;;;;;;;;;4226717;28;20113;-60
2023/04/20 13:47:31;;;;;;;0.98;0.98;;;;;;;;;;4227381;28;20142;-60
2023/04/20 13:49:51;;;;;;;0.80;0.80;;;;;;;;;;4227663;28;20058;-60
2023/04/20 13:52:11;;;;;;;0.90;0.90;;;;;;;;;;4226545;28;20415;-59
2023/04/20 13:54:32;;;;;;;0.90;0.90;;;;;;;;;;4227201;28;20105;-61
2023/04/20 13:56:54;;;;;;;0.90;0.90;;;;;;;;;;4217267;28;20277;-61
2023/04/20 13:59:15;;;;;;;0.90;0.90;;;;;;;;;;4221774;28;20083;-60
2023/04/20 14:01:35;;;;;;;0.95;0.95;;;;;;;;;;4223321;28;20418;-61
2023/04/20 14:03:56;;;;;;;0.90;0.90;;;;;;;;;;4223888;28;20039;-61
2023/04/20 14:06:17;;;;;;;0.90;0.90;;;;;;;;;;4219776;28;20232;-61